Friday, April 20, 2018, 10:34 AM GMT
Back to Local

CYYG, Charlottetown, P. E. I.

Location: , , Canada Lat: 46.283
Local Time: 10:34 AM GMT (10:34 GMT) Lon: -63.133
Time Zone: GMT Elev: 157 ft

Show me the last for .
Show Decoded

2018-04-20 10:00 METAR CYYG 201000Z 02012KT 2SM -SN BR OVC002 M00/M00 A2964 RMK ST8 /S02/ SLP041
                 =
2018-04-20 09:33 METAR CYYG 200933Z 02010KT 1 3/4SM -SN BR OVC002 M00/M00 A2965 RMK SN2SF6 SLP042
                 =
2018-04-20 09:14 METAR CYYG 200914Z 02010KT 3/4SM -SN BR OVC002 M00/M00 A2964 RMK SN5SF3 SLP041 =
2018-04-20 09:00 METAR CYYG 200900Z 01010KT 1 3/4SM -SN BR OVC002 00/M00 A2965 RMK SN3SF5 /S01/
                 SLP043 =
2018-04-20 08:00 METAR CYYG 200800Z 02010KT 2SM -SN BR OVC002 00/M00 A2965 RMK SF8 SLP042 =
2018-04-20 07:00 METAR CYYG 200700Z 01007KT 2SM -SN BR OVC002 00/00 A2964 RMK SF8 SLP040 =
2018-04-20 06:00 METAR CYYG 200600Z 03009KT 3SM -SN BR OVC002 00/00 A2963 RMK SF8 SLP037 =
2018-04-20 05:22 METAR CYYG 200522Z 03009KT 2SM -SN BR OVC002 00/00 A2964 RMK SF8 SLP041 =
2018-04-20 05:00 METAR CYYG 200500Z 04010KT 3SM -SN OVC002 00/00 A2964 RMK SF8 SN WET SLP041 =
2018-04-20 04:31 METAR CYYG 200431Z 03011KT 4SM SNRA OVC003 01/00 A2965 RMK SF8 SLP045 =
2018-04-20 04:20 METAR CYYG 200420Z 04011KT 7SM -RASN BKN004 OVC015 01/01 A2966 RMK SF6NS2 SLP047
                 =
2018-04-20 04:00 METAR CYYG 200400Z 04010KT 8SM -RASN FEW004 OVC012 02/01 A2967 RMK SF2NS6 SN WET
                 SLP049 =
2018-04-20 03:00 METAR CYYG 200300Z 02009KT 8SM -RASN FEW003 OVC010 02/02 A2969 RMK SF2NS6 SN WET
                 SLP056 =
2018-04-20 02:43 METAR CYYG 200243Z 02008KT 8SM -RASN SCT003 OVC015 02/02 A2970 RMK SF4NS4 SN WET
                 SLP059 =
2018-04-20 02:29 METAR CYYG 200229Z 02006KT 7SM -RA BKN003 OVC015 02/02 A2970 RMK SF5NS3 SLP059 =
2018-04-20 02:22 METAR CYYG 200222Z 01005KT 8SM -RA BKN003 OVC015 03/02 A2970 RMK SF5NS3 SLP060 =
2018-04-20 02:00 METAR CYYG 200200Z 02004KT 10SM -RA OVC020 03/03 A2970 RMK NS8 SLP059 =
2018-04-20 01:35 METAR CYYG 200135Z 02003KT 10SM -RA FEW004 OVC020 03/03 A2970 RMK SF1NS7 SLP060
                 =
2018-04-20 01:00 METAR CYYG 200100Z 05003KT 12SM -RA OVC025 04/03 A2970 RMK NS8 SLP061 =
2018-04-20 00:00 METAR CYYG 200000Z 09006KT 15SM -RA FEW015 OVC030 05/03 A2969 RMK SC2SC6 SLP058
                 =
2018-04-19 23:44 METAR CYYG 192344Z 08006KT 12SM -RA OVC030 05/02 A2969 RMK SC8 SLP056 =
2018-04-19 23:00 METAR CYYG 192300Z 08006KT 15SM FEW035 BKN080 OVC220 06/02 A2970 RMK SC1AC5CS2
                 SLP060 =
2018-04-19 22:00 METAR CYYG 192200Z 06006KT 15SM FEW035 BKN080 OVC220 06/02 A2970 RMK SC2AC5CS1
                 SLP062 =
2018-04-19 21:00 METAR CYYG 192100Z 04008KT 15SM FEW036 BKN120 OVC240 07/01 A2970 RMK SC2AC4CI2
                 SLP062 =
2018-04-19 20:00 METAR CYYG 192000Z 03009KT 15SM FEW048 BKN110 OVC260 08/02 A2970 RMK SC1AC5CI2
                 SLP059 =
2018-04-19 19:31 METAR CYYG 191931Z 03009KT 340V040 15SM SCT025 BKN100 OVC260 08/03 A2970 RMK
                 SC4AC3CI1 WSHFT 1922 SLP059 =
2018-04-19 19:00 METAR CYYG 191900Z 21005KT 200V270 15SM SCT033 BKN100 BKN260 09/01 A2969 RMK
                 CU4AC2CI1 SLP058 =
2018-04-19 18:00 METAR CYYG 191800Z 23007KT 210V280 15SM SCT030 BKN100 BKN280 09/01 A2970 RMK
                 CU4AC2CI1 SLP060 =
2018-04-19 17:00 METAR CYYG 191700Z 23007KT 190V280 15SM SCT028 BKN280 08/01 A2969 RMK CU4CI3
                 SLP058 =
2018-04-19 16:00 METAR CYYG 191600Z 26009G15KT 15SM SCT020 SCT040 BKN070 08/02 A2969 RMK
                 SC4SC1AC3 SC TR SLP056 =
2018-04-19 15:02 METAR CYYG 191502Z 24006G16KT 200V270 15SM BKN020 BKN040 BKN070 07/03 A2969 RMK
                 SC5SC1AC1 SLP057 =
2018-04-19 15:00 METAR CYYG 191500Z 24009G16KT 15SM BKN020 BKN040 07/03 A2969 RMK SC5SC1 SLP056 =
2018-04-19 14:00 METAR CYYG 191400Z 24010G15KT 12SM -RA BKN015 OVC030 05/02 A2968 RMK SC7SC1 CIG
                 RAG SLP054 =
2018-04-19 13:23 METAR CYYG 191323Z 26009G15KT 15SM -RA OVC045 05/01 A2967 RMK SC8 SLP051 =
2018-04-19 13:00 METAR CYYG 191300Z 24008KT 15SM BKN045 BKN110 05/01 A2966 RMK SC5AC2 SLP047 =
2018-04-19 12:00 METAR CYYG 191200Z 24011KT 15SM FEW042 BKN110 04/01 A2964 RMK SC1AC6 SLP040 =
2018-04-19 11:00 METAR CYYG 191100Z 24006KT 15SM FEW060 SCT095 BKN260 04/01 A2962 RMK SC1AC2CC2
                 SLP032 =

Support USWX by starting your Amazon purchase here.